createdAt,value
2023-04-09T00:02:27.751Z,19.20
2023-04-09T00:04:56.151Z,18.70
2023-04-09T00:07:24.652Z,19.70
2023-04-09T00:09:54.405Z,19.43
2023-04-09T00:12:23.070Z,19.37
2023-04-09T00:14:51.525Z,18.20
2023-04-09T00:17:19.963Z,18.60
2023-04-09T00:19:48.351Z,18.60
2023-04-09T00:22:16.786Z,20.63
2023-04-09T00:24:45.295Z,21.00
2023-04-09T00:27:15.033Z,19.73
2023-04-09T00:29:44.090Z,21.33
2023-04-09T00:32:12.482Z,20.27
2023-04-09T00:34:41.159Z,19.43
2023-04-09T00:37:09.876Z,21.30
2023-04-09T00:39:38.403Z,19.83
2023-04-09T00:42:06.908Z,20.90
2023-04-09T00:44:36.635Z,20.13
2023-04-09T00:47:05.764Z,21.80
2023-04-09T00:49:34.137Z,20.27
2023-04-09T00:52:02.582Z,21.63
2023-04-09T00:54:30.973Z,20.27
2023-04-09T00:56:59.366Z,21.10
2023-04-09T00:59:27.785Z,21.70
2023-04-09T01:01:57.797Z,21.33
2023-04-09T01:04:26.493Z,21.10
2023-04-09T01:06:57.665Z,20.43
2023-04-09T01:09:29.574Z,20.67
2023-04-09T01:12:03.666Z,20.33
2023-04-09T01:14:34.950Z,19.77
2023-04-09T01:17:12.367Z,19.03
2023-04-09T01:19:49.514Z,20.17
2023-04-09T01:22:26.396Z,20.57
2023-04-09T01:25:00.286Z,20.77
2023-04-09T01:27:39.680Z,22.27
2023-04-09T01:30:10.851Z,20.23
2023-04-09T01:32:40.939Z,19.20
2023-04-09T01:35:10.522Z,21.17
2023-04-09T01:37:41.659Z,22.17
2023-04-09T01:40:10.577Z,22.03
2023-04-09T01:42:39.021Z,23.13
2023-04-09T01:45:08.667Z,22.63
2023-04-09T01:47:38.655Z,23.60
2023-04-09T01:50:07.614Z,23.80
2023-04-09T01:52:36.069Z,23.20
2023-04-09T01:55:04.833Z,20.43
2023-04-09T01:57:33.225Z,21.40
2023-04-09T02:00:01.641Z,23.03
2023-04-09T02:02:33.358Z,23.40
2023-04-09T02:05:05.121Z,22.23
2023-04-09T02:07:38.354Z,23.63
2023-04-09T02:10:07.722Z,23.10
2023-04-09T02:12:38.283Z,23.97
2023-04-09T02:15:07.823Z,21.23
2023-04-09T02:17:36.447Z,22.30
2023-04-09T02:20:06.697Z,24.67
2023-04-09T02:22:35.244Z,21.87
2023-04-09T02:25:03.636Z,23.73
2023-04-09T02:27:32.074Z,21.33
2023-04-09T02:30:00.466Z,25.47
2023-04-09T02:32:29.140Z,25.43
2023-04-09T02:34:57.604Z,24.63
2023-04-09T02:37:27.494Z,24.77
2023-04-09T02:39:56.084Z,25.00
2023-04-09T02:42:24.510Z,26.90
2023-04-09T02:44:52.871Z,25.00
2023-04-09T02:47:21.584Z,26.80
2023-04-09T02:49:50.005Z,26.83
2023-04-09T02:52:20.219Z,26.20
2023-04-09T02:54:49.938Z,25.57
2023-04-09T02:57:18.630Z,26.43
2023-04-09T02:59:47.411Z,26.67
2023-04-09T03:02:16.104Z,24.93
2023-04-09T03:04:44.604Z,26.27
2023-04-09T03:07:13.001Z,26.67
2023-04-09T03:09:41.510Z,24.60
2023-04-09T03:12:11.224Z,26.13
2023-04-09T03:14:39.641Z,24.80
2023-04-09T03:17:08.004Z,26.50
2023-04-09T03:19:36.382Z,22.50
2023-04-09T03:22:05.054Z,23.77
2023-04-09T03:24:33.727Z,25.37
2023-04-09T03:27:05.494Z,25.10
2023-04-09T03:29:36.119Z,24.53
2023-04-09T03:32:04.538Z,22.27
2023-04-09T03:34:33.140Z,20.17
2023-04-09T03:37:01.597Z,22.37
2023-04-09T03:39:32.821Z,24.10
2023-04-09T03:42:01.911Z,23.87
2023-04-09T03:44:37.650Z,27.53
2023-04-09T03:47:12.118Z,22.10
2023-04-09T03:49:41.301Z,26.13
2023-04-09T03:52:18.451Z,24.57
2023-04-09T03:54:53.980Z,23.70
2023-04-09T03:57:25.326Z,23.57
2023-04-09T03:59:56.768Z,24.20
2023-04-09T04:02:30.505Z,23.90
2023-04-09T04:05:03.746Z,23.97
2023-04-09T04:07:37.813Z,22.43
2023-04-09T04:10:11.992Z,25.57
2023-04-09T04:12:44.490Z,27.73
2023-04-09T04:15:34.466Z,26.57
2023-04-09T04:18:03.005Z,22.40
2023-04-09T04:20:42.209Z,24.70
2023-04-09T04:23:14.496Z,22.60
2023-04-09T04:25:53.034Z,28.07
2023-04-09T04:28:27.000Z,27.03
2023-04-09T04:30:57.194Z,25.63
2023-04-09T04:33:25.624Z,25.17
2023-04-09T04:35:56.253Z,24.93
2023-04-09T04:38:35.136Z,26.73
2023-04-09T04:41:07.419Z,20.93
2023-04-09T04:43:41.442Z,23.23
2023-04-09T04:46:13.416Z,22.17
2023-04-09T04:48:41.804Z,28.73
2023-04-09T04:51:10.368Z,27.40
2023-04-09T04:53:44.143Z,29.17
2023-04-09T04:56:15.710Z,28.70
2023-04-09T04:59:16.476Z,30.53
2023-04-09T05:01:59.685Z,29.67
2023-04-09T05:04:31.266Z,26.83
2023-04-09T05:07:00.695Z,28.77
2023-04-09T05:09:29.546Z,30.93
2023-04-09T05:12:03.658Z,30.77
2023-04-09T05:14:32.030Z,29.57
2023-04-09T05:17:01.774Z,30.37
2023-04-09T05:19:40.724Z,31.90
2023-04-09T05:22:09.727Z,31.50
2023-04-09T05:24:38.136Z,29.90
2023-04-09T05:27:07.027Z,27.37
2023-04-09T05:29:36.125Z,29.43
2023-04-09T05:32:09.491Z,28.13
2023-04-09T05:34:41.166Z,25.20
2023-04-09T05:37:09.576Z,26.57
2023-04-09T05:39:37.965Z,24.93
2023-04-09T05:42:06.435Z,26.60
2023-04-09T05:44:39.720Z,24.67
2023-04-09T05:47:14.741Z,26.30
2023-04-09T05:49:49.472Z,25.53
2023-04-09T05:52:19.839Z,29.20
2023-04-09T05:54:48.350Z,28.47
2023-04-09T05:57:21.712Z,26.67
2023-04-09T05:59:57.545Z,28.47
2023-04-09T06:02:27.395Z,25.53
2023-04-09T06:04:56.257Z,25.47
2023-04-09T06:07:24.786Z,28.77
2023-04-09T06:09:53.201Z,28.07
2023-04-09T06:12:21.539Z,26.13
2023-04-09T06:14:50.106Z,28.10
2023-04-09T06:17:18.735Z,28.93
2023-04-09T06:19:48.608Z,26.13
2023-04-09T06:22:16.977Z,26.67
2023-04-09T06:24:45.701Z,25.30
2023-04-09T06:27:14.063Z,25.20
2023-04-09T06:29:42.441Z,28.47
2023-04-09T06:32:11.125Z,26.80
2023-04-09T06:34:39.540Z,29.10
2023-04-09T06:37:11.793Z,31.10
2023-04-09T06:39:44.701Z,30.30
2023-04-09T06:42:15.994Z,26.20
2023-04-09T06:44:56.991Z,25.83
2023-04-09T06:47:25.453Z,25.50
2023-04-09T06:49:53.903Z,24.77
2023-04-09T06:52:23.716Z,22.87
2023-04-09T06:54:52.074Z,23.17
2023-04-09T06:57:20.467Z,23.80
2023-04-09T06:59:49.066Z,23.30
2023-04-09T07:02:17.592Z,23.47
2023-04-09T07:04:46.032Z,20.07
2023-04-09T07:07:14.476Z,19.40
2023-04-09T07:09:44.278Z,20.87
2023-04-09T07:12:12.647Z,20.37
2023-04-09T07:14:41.066Z,20.77
2023-04-09T07:17:09.675Z,21.27
2023-04-09T07:19:38.028Z,19.80
2023-04-09T07:22:06.462Z,16.43
2023-04-09T07:24:35.160Z,15.63
2023-04-09T07:27:06.834Z,17.40
2023-04-09T07:29:35.181Z,17.13
2023-04-09T07:32:03.693Z,19.53
2023-04-09T07:34:32.214Z,18.70
2023-04-09T07:37:00.589Z,18.03
2023-04-09T07:39:29.008Z,15.13
2023-04-09T07:41:57.510Z,15.40
2023-04-09T07:44:27.301Z,15.03
2023-04-09T07:46:55.677Z,14.87
2023-04-09T07:49:24.086Z,15.57
2023-04-09T07:51:52.647Z,15.40
2023-04-09T07:54:21.192Z,15.80
2023-04-09T07:56:49.812Z,15.17
2023-04-09T07:59:18.263Z,15.80
2023-04-09T08:01:48.085Z,15.43
2023-04-09T08:04:16.799Z,16.47
2023-04-09T08:06:49.924Z,14.67
2023-04-09T08:09:18.733Z,15.77
2023-04-09T08:11:47.375Z,17.77
2023-04-09T08:14:16.253Z,17.57
2023-04-09T08:16:45.781Z,17.60
2023-04-09T08:19:15.847Z,15.83
2023-04-09T08:21:44.635Z,14.90
2023-04-09T08:24:13.377Z,14.67
2023-04-09T08:26:42.063Z,14.83
2023-04-09T08:29:10.783Z,14.00
2023-04-09T08:31:39.317Z,12.27
2023-04-09T08:34:07.829Z,12.87
2023-04-09T08:36:37.708Z,11.20
2023-04-09T08:39:06.267Z,10.10
2023-04-09T08:41:34.914Z,11.90
2023-04-09T08:44:03.311Z,10.23
2023-04-09T08:46:31.934Z,11.37
2023-04-09T08:49:00.325Z,9.93
2023-04-09T08:51:28.879Z,10.63
2023-04-09T08:54:01.338Z,10.37
2023-04-09T08:56:30.694Z,10.93
2023-04-09T08:58:59.336Z,10.47
2023-04-09T09:01:28.989Z,11.60
2023-04-09T09:03:58.496Z,9.60
2023-04-09T09:06:28.811Z,10.57
2023-04-09T09:09:08.934Z,9.60
2023-04-09T09:11:37.559Z,8.70
2023-04-09T09:14:08.189Z,9.10
2023-04-09T09:16:40.267Z,8.40
2023-04-09T09:19:08.812Z,9.63
2023-04-09T09:21:38.663Z,10.53
2023-04-09T09:24:18.359Z,9.93
2023-04-09T09:26:46.718Z,9.83
2023-04-09T09:29:15.538Z,11.07
2023-04-09T09:31:51.011Z,10.87
2023-04-09T09:34:19.868Z,10.60
2023-04-09T09:36:48.375Z,10.77
2023-04-09T09:39:18.535Z,10.40
2023-04-09T09:41:48.855Z,10.83
2023-04-09T09:44:32.435Z,10.67
2023-04-09T09:47:00.863Z,10.43
2023-04-09T09:49:29.284Z,10.70
2023-04-09T09:51:58.799Z,10.73
2023-04-09T09:54:29.878Z,10.63
2023-04-09T09:56:59.941Z,10.20
2023-04-09T09:59:32.253Z,10.47
2023-04-09T10:02:02.395Z,10.53
2023-04-09T10:04:34.010Z,10.67
2023-04-09T10:07:03.934Z,10.20
2023-04-09T10:09:33.754Z,10.27
2023-04-09T10:12:03.003Z,10.33
2023-04-09T10:14:31.763Z,10.27
2023-04-09T10:17:01.003Z,11.60
2023-04-09T10:19:29.563Z,12.20
2023-04-09T10:21:59.442Z,11.77
2023-04-09T10:24:27.855Z,12.80
2023-04-09T10:27:13.660Z,11.37
2023-04-09T10:29:47.608Z,11.20
2023-04-09T10:32:22.332Z,11.97
2023-04-09T10:34:52.145Z,11.10
2023-04-09T10:37:23.083Z,10.60
2023-04-09T10:39:52.612Z,10.87
2023-04-09T10:42:25.682Z,10.80
2023-04-09T10:45:07.565Z,11.33
2023-04-09T10:47:36.619Z,11.90
2023-04-09T10:50:21.247Z,11.70
2023-04-09T10:52:53.808Z,11.87
2023-04-09T10:55:38.586Z,10.60
2023-04-09T10:58:11.360Z,10.23
2023-04-09T11:00:42.084Z,10.23
2023-04-09T11:03:24.178Z,10.40
2023-04-09T11:05:54.178Z,9.47
2023-04-09T11:08:23.093Z,10.60
2023-04-09T11:10:53.415Z,10.53
2023-04-09T11:13:23.197Z,10.33
2023-04-09T11:15:51.831Z,10.07
2023-04-09T11:18:23.383Z,10.60
2023-04-09T11:20:52.022Z,10.87
2023-04-09T11:23:20.829Z,11.13
2023-04-09T11:25:51.808Z,10.90
2023-04-09T11:28:20.678Z,10.60
2023-04-09T11:30:52.323Z,10.67
2023-04-09T11:33:20.952Z,10.77
2023-04-09T11:35:49.502Z,10.87
2023-04-09T11:38:18.049Z,10.37
2023-04-09T11:40:49.280Z,10.43
2023-04-09T11:43:20.879Z,10.10
2023-04-09T11:45:51.576Z,10.10
2023-04-09T11:48:21.963Z,9.20
2023-04-09T11:50:50.727Z,9.37
2023-04-09T11:53:22.224Z,9.63
2023-04-09T11:55:51.965Z,9.83
2023-04-09T11:58:21.058Z,10.60
2023-04-09T12:00:51.033Z,10.23
2023-04-09T12:03:19.719Z,10.33
2023-04-09T12:05:51.159Z,10.03
2023-04-09T12:08:24.311Z,9.30
2023-04-09T12:10:53.900Z,9.93
2023-04-09T12:13:22.669Z,9.77
2023-04-09T12:15:52.657Z,10.47
2023-04-09T12:18:24.195Z,9.77
2023-04-09T12:20:52.554Z,9.00
2023-04-09T12:23:20.983Z,9.10
2023-04-09T12:25:49.421Z,9.13
2023-04-09T12:28:18.476Z,9.90
2023-04-09T12:30:49.130Z,9.50
2023-04-09T12:33:19.227Z,9.23
2023-04-09T12:35:47.838Z,9.03
2023-04-09T12:38:16.515Z,8.43
2023-04-09T12:40:44.984Z,8.60
2023-04-09T12:43:13.331Z,7.77
2023-04-09T12:45:42.034Z,8.47
2023-04-09T12:48:10.705Z,8.27
2023-04-09T12:50:40.572Z,8.63
2023-04-09T12:53:08.973Z,9.53
2023-04-09T12:55:37.361Z,9.83
2023-04-09T12:58:05.903Z,9.07
2023-04-09T13:00:34.306Z,9.20
2023-04-09T13:03:02.837Z,8.57
2023-04-09T13:05:32.576Z,8.90
2023-04-09T13:08:02.423Z,8.50
2023-04-09T13:10:30.984Z,8.07
2023-04-09T13:12:59.643Z,8.53
2023-04-09T13:15:28.081Z,8.43
2023-04-09T13:17:56.492Z,7.87
2023-04-09T13:20:24.860Z,9.63
2023-04-09T13:22:53.285Z,9.10
2023-04-09T13:25:23.288Z,9.47
2023-04-09T13:27:51.674Z,8.53
2023-04-09T13:30:20.292Z,8.80
2023-04-09T13:32:48.748Z,8.90
2023-04-09T13:35:17.214Z,9.57
2023-04-09T13:37:45.666Z,9.57
2023-04-09T13:40:14.370Z,9.30
2023-04-09T13:42:44.099Z,8.50
2023-04-09T13:45:12.666Z,8.17
2023-04-09T13:47:41.228Z,8.40
2023-04-09T13:50:11.896Z,8.70
2023-04-09T13:52:40.560Z,10.60
2023-04-09T13:55:09.859Z,12.27
2023-04-09T13:57:38.220Z,8.67
2023-04-09T14:00:09.140Z,9.37
2023-04-09T14:02:37.549Z,8.93
2023-04-09T14:05:06.212Z,8.90
2023-04-09T14:07:34.574Z,9.07
2023-04-09T14:10:03.050Z,10.70
2023-04-09T14:12:31.426Z,8.73
2023-04-09T14:14:59.819Z,8.80
2023-04-09T14:17:29.606Z,9.03
2023-04-09T14:19:59.074Z,8.20
2023-04-09T14:22:28.493Z,9.60
2023-04-09T14:24:56.956Z,8.70
2023-04-09T14:27:25.960Z,8.90
2023-04-09T14:29:54.392Z,9.23
2023-04-09T14:32:23.003Z,9.20
2023-04-09T14:34:52.747Z,7.67
2023-04-09T14:37:21.494Z,8.07
2023-04-09T14:39:49.943Z,7.10
2023-04-09T14:42:19.076Z,7.87
2023-04-09T14:44:47.554Z,7.53
2023-04-09T14:47:16.099Z,7.70
2023-04-09T14:49:44.599Z,8.03
2023-04-09T14:52:14.311Z,8.13
2023-04-09T14:54:42.684Z,7.23
2023-04-09T14:57:11.091Z,8.13
2023-04-09T14:59:39.513Z,8.70
2023-04-09T15:02:08.057Z,9.37
2023-04-09T15:04:36.556Z,9.30
2023-04-09T15:07:05.758Z,9.90
2023-04-09T15:09:35.739Z,10.20
2023-04-09T15:12:04.115Z,9.53
2023-04-09T15:14:33.565Z,9.43
2023-04-09T15:17:02.058Z,9.70
2023-04-09T15:19:32.296Z,9.77
2023-04-09T15:22:00.656Z,8.83
2023-04-09T15:24:29.493Z,9.00
2023-04-09T15:26:59.466Z,9.13
2023-04-09T15:29:27.809Z,8.17
2023-04-09T15:31:56.290Z,8.30
2023-04-09T15:34:25.795Z,8.60
2023-04-09T15:36:54.310Z,8.50
2023-04-09T15:39:24.614Z,9.00
2023-04-09T15:41:53.023Z,8.77
2023-04-09T15:44:22.779Z,8.87
2023-04-09T15:46:51.653Z,8.33
2023-04-09T15:49:20.585Z,8.50
2023-04-09T15:51:50.459Z,9.37
2023-04-09T15:54:18.859Z,9.00
2023-04-09T15:56:47.453Z,9.47
2023-04-09T15:59:16.403Z,9.00
2023-04-09T16:01:46.326Z,9.33
2023-04-09T16:04:14.721Z,10.30
2023-04-09T16:06:43.165Z,10.37
2023-04-09T16:09:11.571Z,9.57
2023-04-09T16:11:40.595Z,9.40
2023-04-09T16:14:09.313Z,8.57
2023-04-09T16:16:38.767Z,9.17
2023-04-09T16:19:08.569Z,8.77
2023-04-09T16:21:36.980Z,9.10
2023-04-09T16:24:05.626Z,8.97
2023-04-09T16:26:34.354Z,9.00
2023-04-09T16:29:04.233Z,8.43
2023-04-09T16:31:32.702Z,8.57
2023-04-09T16:34:01.084Z,8.47
2023-04-09T16:36:33.594Z,8.77
2023-04-09T16:39:02.085Z,8.63
2023-04-09T16:41:30.542Z,8.47
2023-04-09T16:43:58.876Z,8.43
2023-04-09T16:46:27.348Z,8.63
2023-04-09T16:48:55.945Z,8.87
2023-04-09T16:51:24.337Z,9.00
2023-04-09T16:53:54.043Z,8.07
2023-04-09T16:56:22.404Z,8.87
2023-04-09T16:58:51.624Z,7.60
2023-04-09T17:01:20.193Z,7.03
2023-04-09T17:03:49.914Z,6.93
2023-04-09T17:06:18.468Z,7.20
2023-04-09T17:08:46.850Z,7.00
2023-04-09T17:11:17.792Z,7.20
2023-04-09T17:13:46.264Z,7.10
2023-04-09T17:16:15.448Z,7.37
2023-04-09T17:18:45.297Z,7.80
2023-04-09T17:21:13.766Z,8.23
2023-04-09T17:23:42.592Z,8.23
2023-04-09T17:26:11.319Z,8.63
2023-04-09T17:28:42.136Z,7.73
2023-04-09T17:31:14.227Z,8.90
2023-04-09T17:33:42.646Z,8.10
2023-04-09T17:36:11.170Z,8.33
2023-04-09T17:38:39.611Z,8.93
2023-04-09T17:41:08.602Z,8.73
2023-04-09T17:43:37.921Z,8.67
2023-04-09T17:46:08.813Z,8.20
2023-04-09T17:48:37.892Z,8.00
2023-04-09T17:51:06.855Z,9.57
2023-04-09T17:53:35.557Z,8.40
2023-04-09T17:56:04.278Z,8.80
2023-04-09T17:58:32.753Z,8.30
2023-04-09T18:01:01.334Z,8.77
2023-04-09T18:03:31.570Z,8.50
2023-04-09T18:06:00.817Z,9.20
2023-04-09T18:08:29.172Z,9.50
2023-04-09T18:11:11.454Z,9.20
2023-04-09T18:13:41.487Z,9.97
2023-04-09T18:16:10.661Z,10.67
2023-04-09T18:18:41.277Z,10.37
2023-04-09T18:21:09.828Z,10.33
2023-04-09T18:23:40.070Z,9.73
2023-04-09T18:26:08.751Z,8.93
2023-04-09T18:28:37.149Z,9.50
2023-04-09T18:31:05.877Z,9.30
2023-04-09T18:33:34.258Z,10.23
2023-04-09T18:36:04.417Z,10.13
2023-04-09T18:38:32.854Z,8.83
2023-04-09T18:41:01.572Z,10.07
2023-04-09T18:43:29.978Z,9.03
2023-04-09T18:45:58.343Z,10.23
2023-04-09T18:48:26.918Z,10.10
2023-04-09T18:50:55.384Z,10.17
2023-04-09T18:53:26.417Z,10.03
2023-04-09T18:55:54.951Z,10.27
2023-04-09T18:58:24.040Z,10.00
2023-04-09T19:00:52.622Z,10.53
2023-04-09T19:03:21.520Z,10.83
2023-04-09T19:05:50.172Z,10.73
2023-04-09T19:08:18.532Z,10.77
2023-04-09T19:10:48.621Z,10.97
2023-04-09T19:13:17.255Z,10.80
2023-04-09T19:15:46.006Z,10.80
2023-04-09T19:18:14.651Z,11.43
2023-04-09T19:20:43.001Z,11.10
2023-04-09T19:23:11.364Z,10.80
2023-04-09T19:25:39.724Z,11.90
2023-04-09T19:28:09.431Z,11.80
2023-04-09T19:30:37.868Z,11.47
2023-04-09T19:33:06.527Z,10.63
2023-04-09T19:35:40.385Z,11.63
2023-04-09T19:38:09.253Z,11.57
2023-04-09T19:40:37.690Z,11.30
2023-04-09T19:43:06.091Z,10.80
2023-04-09T19:45:36.230Z,11.77
2023-04-09T19:48:04.656Z,10.43
2023-04-09T19:50:35.771Z,10.83
2023-04-09T19:53:04.443Z,11.13
2023-04-09T19:55:32.874Z,10.97
2023-04-09T19:58:01.437Z,10.47
2023-04-09T20:00:29.937Z,9.77
2023-04-09T20:02:59.860Z,9.83
2023-04-09T20:05:28.668Z,9.33
2023-04-09T20:07:56.997Z,9.57
2023-04-09T20:10:25.414Z,8.70
2023-04-09T20:12:53.767Z,9.73
2023-04-09T20:15:22.606Z,9.40
2023-04-09T20:17:52.764Z,10.20
2023-04-09T20:20:22.750Z,10.93
2023-04-09T20:22:55.522Z,11.43
2023-04-09T20:25:24.774Z,10.27
2023-04-09T20:27:54.452Z,11.17
2023-04-09T20:30:23.022Z,10.57
2023-04-09T20:32:55.017Z,10.23
2023-04-09T20:35:26.208Z,10.50
2023-04-09T20:37:55.324Z,10.50
2023-04-09T20:40:24.642Z,10.20
2023-04-09T20:42:53.063Z,11.03
2023-04-09T20:45:21.554Z,10.83
2023-04-09T20:47:49.972Z,10.80
2023-04-09T20:50:19.390Z,10.57
2023-04-09T20:52:49.815Z,10.70
2023-04-09T20:55:18.635Z,10.93
2023-04-09T20:57:47.328Z,11.20
2023-04-09T21:00:16.096Z,11.00
2023-04-09T21:02:44.794Z,11.67
2023-04-09T21:05:22.753Z,10.70
2023-04-09T21:07:54.531Z,10.50
2023-04-09T21:10:23.024Z,10.80
2023-04-09T21:12:51.858Z,11.97
2023-04-09T21:15:20.580Z,11.23
2023-04-09T21:17:48.987Z,10.90
2023-04-09T21:20:17.490Z,11.30
2023-04-09T21:22:45.926Z,9.77
2023-04-09T21:25:15.899Z,9.97
2023-04-09T21:27:44.409Z,10.13
2023-04-09T21:30:13.240Z,10.67
2023-04-09T21:32:42.245Z,10.23
2023-04-09T21:35:10.917Z,10.30
2023-04-09T21:37:39.352Z,10.33
2023-04-09T21:40:08.594Z,10.37
2023-04-09T21:42:38.416Z,11.23
2023-04-09T21:45:07.791Z,10.63
2023-04-09T21:47:36.449Z,10.93
2023-04-09T21:50:05.184Z,10.30
2023-04-09T21:52:34.502Z,10.93
2023-04-09T21:55:03.351Z,11.27
2023-04-09T21:57:31.725Z,10.47
2023-04-09T22:00:01.556Z,11.00
2023-04-09T22:02:30.118Z,10.63
2023-04-09T22:05:00.428Z,10.97
2023-04-09T22:07:29.091Z,10.80
2023-04-09T22:09:58.489Z,12.07
2023-04-09T22:12:26.964Z,11.13
2023-04-09T22:14:55.428Z,11.33
2023-04-09T22:17:25.221Z,10.87
2023-04-09T22:19:53.604Z,11.77
2023-04-09T22:22:21.951Z,10.97
2023-04-09T22:24:50.312Z,10.97
2023-04-09T22:27:19.002Z,11.00
2023-04-09T22:29:47.326Z,11.90
2023-04-09T22:32:15.849Z,11.70
2023-04-09T22:34:45.524Z,11.43
2023-04-09T22:37:13.865Z,11.33
2023-04-09T22:39:42.224Z,11.53
2023-04-09T22:42:10.824Z,11.33
2023-04-09T22:44:39.268Z,11.30
2023-04-09T22:47:07.654Z,12.03
2023-04-09T22:49:36.024Z,12.07
2023-04-09T22:52:05.946Z,11.80
2023-04-09T22:54:34.327Z,11.30
2023-04-09T22:57:03.064Z,11.23
2023-04-09T22:59:40.352Z,12.07
2023-04-09T23:02:09.545Z,12.10
2023-04-09T23:04:38.085Z,12.07
2023-04-09T23:07:08.010Z,12.33
2023-04-09T23:09:36.565Z,11.47
2023-04-09T23:12:04.960Z,12.23
2023-04-09T23:14:33.378Z,12.33
2023-04-09T23:17:01.724Z,11.80
2023-04-09T23:19:30.173Z,11.20
2023-04-09T23:21:58.526Z,11.90
2023-04-09T23:24:28.204Z,11.67
2023-04-09T23:26:56.951Z,12.60
2023-04-09T23:29:25.504Z,12.33
2023-04-09T23:31:54.011Z,11.80
2023-04-09T23:34:22.496Z,12.00
2023-04-09T23:36:51.657Z,12.03
2023-04-09T23:39:20.049Z,12.97
2023-04-09T23:41:49.733Z,12.50
2023-04-09T23:44:18.091Z,11.97
2023-04-09T23:46:46.686Z,13.73
2023-04-09T23:49:16.146Z,11.50
2023-04-09T23:51:44.533Z,12.77
2023-04-09T23:54:12.885Z,12.10
2023-04-09T23:56:42.004Z,11.97
2023-04-09T23:59:11.801Z,12.63
